createdAt,value
2022-11-30T00:00:14.635Z,27.33
2022-11-30T00:05:16.198Z,30.23
2022-11-30T00:10:17.770Z,27.88
2022-11-30T00:15:20.387Z,26.13
2022-11-30T00:20:21.944Z,28.08
2022-11-30T00:25:24.844Z,28.25
2022-11-30T00:30:26.375Z,25.60
2022-11-30T00:35:27.873Z,26.42
2022-11-30T00:40:29.331Z,26.88
2022-11-30T00:45:30.768Z,27.25
2022-11-30T00:50:32.344Z,26.67
2022-11-30T00:55:33.962Z,26.60
2022-11-30T01:00:35.936Z,28.05
2022-11-30T01:05:38.937Z,27.40
2022-11-30T01:10:43.018Z,27.48
2022-11-30T01:15:44.664Z,26.63
2022-11-30T01:20:46.190Z,27.42
2022-11-30T01:25:55.231Z,25.55
2022-11-30T01:30:59.165Z,26.15
2022-11-30T01:36:12.641Z,26.67
2022-11-30T01:41:17.397Z,28.65
2022-11-30T01:46:35.788Z,27.05
2022-11-30T01:51:51.568Z,27.40
2022-11-30T01:57:02.668Z,26.88
2022-11-30T02:02:04.135Z,26.40
2022-11-30T02:07:07.830Z,28.05
2022-11-30T02:12:21.903Z,27.83
2022-11-30T02:17:53.762Z,28.30
2022-11-30T02:23:10.131Z,28.00
2022-11-30T02:28:30.412Z,27.65
2022-11-30T02:33:33.044Z,27.58
2022-11-30T02:38:34.720Z,27.50
2022-11-30T02:43:36.612Z,26.08
2022-11-30T02:49:06.100Z,26.50
2022-11-30T02:54:08.377Z,26.05
2022-11-30T02:59:09.942Z,26.83
2022-11-30T03:04:11.384Z,27.80
2022-11-30T03:09:14.213Z,25.80
2022-11-30T03:14:15.737Z,27.02
2022-11-30T03:19:17.276Z,26.77
2022-11-30T03:24:18.859Z,28.77
2022-11-30T03:29:20.336Z,27.77
2022-11-30T03:34:22.629Z,27.83
2022-11-30T03:39:24.586Z,27.05
2022-11-30T03:44:26.107Z,27.48
2022-11-30T03:49:27.576Z,29.23
2022-11-30T03:54:29.135Z,29.05
2022-11-30T03:59:30.611Z,28.83
2022-11-30T04:04:32.156Z,28.50
2022-11-30T04:09:33.660Z,28.02
2022-11-30T04:14:35.245Z,29.15
2022-11-30T04:19:36.712Z,28.33
2022-11-30T04:24:38.210Z,29.17
2022-11-30T04:29:39.663Z,29.77
2022-11-30T04:34:41.175Z,29.02
2022-11-30T04:39:42.683Z,29.85
2022-11-30T04:44:44.327Z,28.48
2022-11-30T04:49:46.001Z,34.45
2022-11-30T04:54:47.627Z,31.67
2022-11-30T04:59:49.328Z,32.22
2022-11-30T05:04:51.150Z,30.10
2022-11-30T05:09:53.909Z,28.70
2022-11-30T05:14:55.365Z,29.55
2022-11-30T05:19:56.813Z,29.42
2022-11-30T05:24:58.303Z,29.77
2022-11-30T05:29:59.799Z,27.83
2022-11-30T05:35:01.332Z,31.60
2022-11-30T05:40:02.926Z,30.70
2022-11-30T05:45:04.803Z,29.52
2022-11-30T05:50:07.090Z,30.38
2022-11-30T05:55:08.725Z,30.30
2022-11-30T06:00:10.689Z,29.40
2022-11-30T06:05:13.605Z,30.50
2022-11-30T06:10:15.148Z,30.50
2022-11-30T06:15:16.695Z,30.35
2022-11-30T06:20:18.235Z,32.08
2022-11-30T06:25:19.762Z,31.45
2022-11-30T06:30:21.320Z,29.45
2022-11-30T06:35:22.839Z,30.08
2022-11-30T06:40:24.299Z,30.73
2022-11-30T06:45:25.845Z,32.17
2022-11-30T06:50:27.364Z,31.98
2022-11-30T06:55:32.648Z,34.72
2022-11-30T07:00:34.889Z,33.40
2022-11-30T07:05:45.392Z,34.30
2022-11-30T07:10:47.486Z,31.75
2022-11-30T07:15:49.006Z,31.63
2022-11-30T07:20:50.602Z,31.00
2022-11-30T07:26:09.376Z,32.78
2022-11-30T07:31:25.032Z,31.20
2022-11-30T07:36:27.652Z,31.00
2022-11-30T07:41:29.420Z,30.92
2022-11-30T07:46:31.580Z,31.00
2022-11-30T07:51:33.644Z,31.17
2022-11-30T07:56:35.175Z,29.80
2022-11-30T08:01:37.350Z,30.40
2022-11-30T08:06:38.971Z,30.65
2022-11-30T08:11:40.526Z,30.50
2022-11-30T08:16:44.135Z,31.48
2022-11-30T08:21:45.731Z,30.38
2022-11-30T08:26:50.997Z,30.88
2022-11-30T08:31:52.460Z,34.30
2022-11-30T08:36:53.940Z,33.83
2022-11-30T08:41:55.424Z,33.50
2022-11-30T08:46:57.036Z,35.65
2022-11-30T08:57:21.211Z,35.28
2022-11-30T09:02:22.758Z,35.40
2022-11-30T09:07:24.334Z,35.10
2022-11-30T09:12:25.854Z,35.30
2022-11-30T09:17:27.388Z,33.42
2022-11-30T09:22:28.965Z,33.88
2022-11-30T09:27:34.057Z,34.88
2022-11-30T09:32:35.616Z,33.40
2022-11-30T09:37:38.773Z,31.90
2022-11-30T09:42:51.538Z,32.88
2022-11-30T09:48:02.401Z,32.80
2022-11-30T09:53:10.471Z,35.05
2022-11-30T09:58:37.443Z,33.97
2022-11-30T10:03:39.127Z,34.80
2022-11-30T10:08:58.848Z,33.35
2022-11-30T10:14:17.813Z,33.08
2022-11-30T10:19:46.851Z,32.40
2022-11-30T10:25:14.777Z,32.08
2022-11-30T10:30:22.168Z,30.45
2022-11-30T10:35:33.418Z,31.65
2022-11-30T10:40:45.293Z,31.10
2022-11-30T10:45:50.702Z,26.00
2022-11-30T10:50:53.242Z,25.30
2022-11-30T10:56:12.651Z,28.50
2022-11-30T11:01:31.131Z,29.60
2022-11-30T11:06:33.554Z,29.70
2022-11-30T11:11:39.446Z,28.55
2022-11-30T11:17:00.835Z,27.05
2022-11-30T11:22:05.667Z,27.38
2022-11-30T11:27:07.366Z,26.95
2022-11-30T11:32:19.098Z,26.02
2022-11-30T11:37:26.225Z,26.52
2022-11-30T11:42:31.367Z,26.13
2022-11-30T11:47:40.521Z,25.33
2022-11-30T11:52:41.996Z,24.15
2022-11-30T11:57:54.561Z,24.73
2022-11-30T12:03:24.814Z,24.52
2022-11-30T12:08:56.716Z,23.00
2022-11-30T12:13:58.368Z,23.67
2022-11-30T12:19:24.674Z,23.30
2022-11-30T12:24:31.947Z,21.85
2022-11-30T12:29:42.441Z,24.77
2022-11-30T12:35:08.563Z,24.17
2022-11-30T12:40:28.311Z,25.70
2022-11-30T12:45:43.679Z,25.65
2022-11-30T12:50:56.818Z,26.42
2022-11-30T12:56:01.294Z,25.50
2022-11-30T13:01:10.003Z,26.05
2022-11-30T13:06:47.610Z,25.10
2022-11-30T13:11:56.347Z,24.83
2022-11-30T13:17:06.018Z,23.70
2022-11-30T13:22:19.303Z,24.85
2022-11-30T13:27:37.362Z,24.02
2022-11-30T13:38:36.330Z,23.65
2022-11-30T13:43:31.468Z,23.05
2022-11-30T13:48:38.557Z,25.60
2022-11-30T13:53:40.828Z,27.37
2022-11-30T13:59:22.605Z,26.75
2022-11-30T14:04:32.298Z,28.35
2022-11-30T14:09:43.084Z,27.00
2022-11-30T14:14:46.977Z,25.60
2022-11-30T14:19:52.585Z,25.98
2022-11-30T14:24:55.488Z,27.05
2022-11-30T14:30:03.005Z,26.70
2022-11-30T14:35:17.039Z,26.60
2022-11-30T14:40:20.604Z,28.58
2022-11-30T14:45:31.029Z,27.67
2022-11-30T14:50:32.970Z,28.27
2022-11-30T14:56:04.525Z,27.88
2022-11-30T15:01:21.945Z,27.83
2022-11-30T15:06:30.688Z,27.90
2022-11-30T15:11:32.219Z,27.55
2022-11-30T15:16:33.798Z,27.48
2022-11-30T15:21:35.321Z,28.90
2022-11-30T15:26:46.291Z,28.52
2022-11-30T15:31:51.668Z,32.42
2022-11-30T15:36:55.909Z,29.88
2022-11-30T15:41:59.792Z,30.00
2022-11-30T15:47:02.617Z,30.20
2022-11-30T15:52:09.979Z,33.85
2022-11-30T15:57:12.079Z,30.52
2022-11-30T16:02:26.631Z,28.88
2022-11-30T16:07:31.954Z,27.70
2022-11-30T16:12:33.593Z,29.48
2022-11-30T16:17:35.122Z,27.92
2022-11-30T16:22:38.065Z,35.67
2022-11-30T16:27:39.532Z,36.70
2022-11-30T16:32:40.988Z,30.70
2022-11-30T16:37:42.560Z,35.95
2022-11-30T16:42:44.234Z,34.67
2022-11-30T16:47:45.841Z,36.80
2022-11-30T16:52:47.436Z,32.92
2022-11-30T16:57:49.634Z,30.70
2022-11-30T17:03:04.664Z,30.75
2022-11-30T17:08:06.332Z,37.65
2022-11-30T17:13:13.601Z,36.35
2022-11-30T17:18:15.127Z,36.80
2022-11-30T17:23:16.677Z,41.75
2022-11-30T17:28:18.335Z,40.50
2022-11-30T17:33:19.858Z,39.15
2022-11-30T17:38:21.317Z,39.22
2022-11-30T17:43:23.055Z,36.78
2022-11-30T17:48:24.547Z,36.03
2022-11-30T17:53:26.035Z,34.85
2022-11-30T17:58:32.544Z,35.75
2022-11-30T18:03:35.688Z,34.88
2022-11-30T18:08:38.921Z,37.03
2022-11-30T18:13:41.033Z,38.38
2022-11-30T18:18:47.654Z,40.33
2022-11-30T18:23:50.708Z,42.45
2022-11-30T18:28:57.395Z,41.58
2022-11-30T18:34:00.858Z,44.25
2022-11-30T18:39:02.741Z,44.50
2022-11-30T18:44:04.856Z,47.80
2022-11-30T18:49:06.882Z,45.53
2022-11-30T18:54:10.295Z,47.20
2022-11-30T18:59:13.960Z,43.88
2022-11-30T19:04:15.476Z,48.80
2022-11-30T19:09:18.989Z,45.42
2022-11-30T19:14:20.556Z,47.88
2022-11-30T19:19:22.141Z,53.97
2022-11-30T19:24:23.954Z,49.60
2022-11-30T19:29:25.470Z,48.97
2022-11-30T19:34:27.028Z,47.72
2022-11-30T19:39:28.525Z,47.03
2022-11-30T19:44:30.134Z,50.60
2022-11-30T19:49:31.660Z,48.90
2022-11-30T19:54:33.226Z,47.40
2022-11-30T19:59:34.696Z,46.85
2022-11-30T20:04:36.215Z,48.53
2022-11-30T20:09:38.136Z,49.50
2022-11-30T20:14:39.637Z,51.80
2022-11-30T20:19:41.117Z,61.13
2022-11-30T20:24:42.633Z,52.80
2022-11-30T20:29:44.091Z,52.25
2022-11-30T20:34:45.679Z,48.83
2022-11-30T20:39:47.268Z,49.15
2022-11-30T20:44:49.823Z,46.92
2022-11-30T20:49:51.522Z,47.17
2022-11-30T20:54:53.004Z,49.30
2022-11-30T20:59:54.500Z,47.20
2022-11-30T21:04:55.982Z,48.03
2022-11-30T21:09:58.450Z,49.72
2022-11-30T21:14:59.934Z,48.03
2022-11-30T21:20:01.785Z,48.15
2022-11-30T21:25:03.501Z,47.75
2022-11-30T21:30:06.156Z,48.28
2022-11-30T21:35:08.244Z,50.10
2022-11-30T21:40:10.832Z,47.50
2022-11-30T21:45:12.294Z,49.00
2022-11-30T21:50:13.810Z,46.92
2022-11-30T21:55:15.334Z,47.17
2022-11-30T22:00:17.162Z,49.17
2022-11-30T22:05:18.744Z,47.13
2022-11-30T22:10:20.621Z,49.03
2022-11-30T22:15:22.340Z,49.22
2022-11-30T22:20:23.876Z,50.38
2022-11-30T22:25:25.395Z,51.13
2022-11-30T22:30:26.919Z,49.25
2022-11-30T22:35:28.423Z,45.45
2022-11-30T22:40:29.897Z,47.97
2022-11-30T22:45:33.134Z,47.97
2022-11-30T22:50:35.152Z,47.90
2022-11-30T22:55:36.776Z,48.08
2022-11-30T23:00:38.372Z,48.00
2022-11-30T23:05:40.174Z,47.67
2022-11-30T23:10:41.642Z,50.28
2022-11-30T23:15:43.302Z,47.83
2022-11-30T23:20:44.870Z,48.67
2022-11-30T23:25:46.391Z,48.13
2022-11-30T23:30:47.871Z,49.55
2022-11-30T23:35:49.327Z,47.05
2022-11-30T23:40:50.803Z,48.60
2022-11-30T23:45:52.249Z,48.47
2022-11-30T23:50:54.414Z,49.95
2022-11-30T23:55:56.735Z,47.45
